Time;durP1;ratioP1;P1;durP2;ratioP2;P2;SDS_P1;SDS_P2;PMS_P1;PMS_P2;Temp;Humidity;BMP_temperature;BMP_pressure;BME280_temperature;BME280_humidity;BME280_pressure;Samples;Min_cycle;Max_cycle;Signal;HPM_P1;HPM_P2
2023/05/14 08:01:38;;;;;;;7.05;2.00;;;16.90;85.80;;;;;;5043438;28;20094;-69
2023/05/14 08:04:05;;;;;;;4.40;2.00;;;16.90;86.20;;;;;;5042677;28;20049;-70
2023/05/14 08:06:33;;;;;;;4.32;2.17;;;16.90;86.00;;;;;;5004996;28;20034;-69
2023/05/14 08:09:00;;;;;;;7.32;2.40;;;16.80;86.20;;;;;;5020183;28;20036;-70
2023/05/14 08:11:28;;;;;;;3.83;2.03;;;16.80;86.30;;;;;;4995805;28;20037;-71
2023/05/14 08:13:55;;;;;;;5.75;2.47;;;16.80;86.40;;;;;;5019238;28;20029;-68
2023/05/14 08:16:24;;;;;;;4.07;2.10;;;16.80;86.50;;;;;;5046957;28;20040;-68
2023/05/14 08:18:52;;;;;;;7.43;2.10;;;16.80;86.60;;;;;;5029351;28;20037;-68
2023/05/14 08:21:19;;;;;;;3.67;2.20;;;16.80;86.90;;;;;;5043646;28;20036;-68
2023/05/14 08:23:47;;;;;;;7.57;2.55;;;16.80;86.80;;;;;;5045356;28;20049;-70
2023/05/14 08:26:14;;;;;;;4.72;2.65;;;16.80;86.80;;;;;;5049660;28;20036;-71
2023/05/14 08:28:42;;;;;;;6.80;3.05;;;16.80;87.30;;;;;;5048027;28;20060;-69
2023/05/14 08:31:09;;;;;;;27.63;8.65;;;16.70;87.40;;;;;;5051977;28;20037;-71
2023/05/14 08:33:36;;;;;;;36.20;14.90;;;16.70;88.40;;;;;;5034816;28;20041;-68
2023/05/14 08:36:04;;;;;;;20.98;5.80;;;16.40;92.10;;;;;;5055967;28;20029;-69
2023/05/14 08:38:32;;;;;;;20.65;4.45;;;16.10;94.10;;;;;;5047344;28;20059;-69
2023/05/14 08:40:59;;;;;;;12.98;3.20;;;15.80;95.20;;;;;;5048408;28;20439;-68
2023/05/14 08:43:30;;;;;;;11.65;2.50;;;15.80;95.70;;;;;;5012165;28;20041;-70
2023/05/14 08:46:00;;;;;;;9.30;2.03;;;15.70;96.10;;;;;;5050156;28;20446;-67
2023/05/14 08:48:32;;;;;;;7.00;1.63;;;15.70;96.30;;;;;;5020506;28;20533;-70
2023/05/14 08:51:00;;;;;;;4.15;1.60;;;15.70;96.40;;;;;;5007253;28;20037;-68
2023/05/14 08:53:27;;;;;;;8.55;1.88;;;15.70;96.50;;;;;;5020465;28;20045;-71
2023/05/14 08:55:55;;;;;;;7.78;1.70;;;15.70;96.60;;;;;;5060215;28;20029;-69
2023/05/14 08:58:24;;;;;;;4.70;1.77;;;15.60;96.70;;;;;;5052411;28;20125;-68
2023/05/14 09:00:53;;;;;;;7.80;2.03;;;15.70;96.90;;;;;;5048796;28;20486;-68
2023/05/14 10:08:48;;;;;;;8.55;3.20;;;15.70;97.60;;;;;;5045808;28;20488;-71
2023/05/14 10:11:25;;;;;;;7.75;3.28;;;15.70;97.60;;;;;;5033495;28;20407;-70
2023/05/14 10:14:17;;;;;;;8.30;3.38;;;15.70;97.60;;;;;;5048526;28;20044;-69
2023/05/14 10:16:51;;;;;;;7.70;3.13;;;15.70;97.60;;;;;;5044836;28;20043;-68
2023/05/14 10:19:20;;;;;;;7.35;3.33;;;15.80;97.60;;;;;;5030300;28;20454;-67
2023/05/14 10:21:55;;;;;;;5.43;3.17;;;15.70;97.60;;;;;;5050870;28;20679;-68
2023/05/14 10:24:23;;;;;;;9.70;3.25;;;15.70;97.60;;;;;;5031925;28;20059;-71
2023/05/14 10:26:50;;;;;;;6.13;3.05;;;15.70;97.60;;;;;;5028344;28;20037;-67
2023/05/14 10:29:18;;;;;;;10.23;3.10;;;15.70;97.60;;;;;;5049251;28;20037;-67
2023/05/14 10:31:54;;;;;;;10.95;3.30;;;15.70;97.60;;;;;;5047192;28;20029;-69
2023/05/14 10:34:32;;;;;;;8.05;2.65;;;15.70;97.60;;;;;;5037790;28;20518;-69
2023/05/14 10:37:00;;;;;;;11.10;3.20;;;15.70;97.60;;;;;;5035047;28;20766;-69
2023/05/14 10:39:47;;;;;;;7.20;2.95;;;15.70;97.60;;;;;;5053660;28;20060;-69
2023/05/14 10:42:17;;;;;;;8.57;3.20;;;15.70;97.60;;;;;;5053647;28;20043;-68
2023/05/14 10:45:07;;;;;;;8.02;3.20;;;15.70;97.60;;;;;;5052825;28;20127;-68
2023/05/14 10:47:38;;;;;;;7.18;2.78;;;15.70;97.60;;;;;;5052909;28;20063;-68
2023/05/14 10:50:12;;;;;;;4.75;3.13;;;15.70;97.60;;;;;;5070993;28;20044;-68
2023/05/14 10:52:44;;;;;;;6.68;3.00;;;15.70;97.60;;;;;;5070943;28;20089;-68
2023/05/14 10:55:15;;;;;;;7.22;3.20;;;15.60;97.60;;;;;;5049651;28;20456;-67
2023/05/14 10:57:44;;;;;;;10.05;3.50;;;15.70;97.60;;;;;;5071251;28;20032;-67
2023/05/14 11:00:12;;;;;;;5.82;3.00;;;15.70;97.70;;;;;;5067462;28;20036;-68
2023/05/14 11:02:41;;;;;;;8.95;3.33;;;15.70;97.70;;;;;;5002256;28;20036;-68
2023/05/14 11:05:14;;;;;;;7.97;3.28;;;15.60;97.70;;;;;;5030649;28;20041;-68
2023/05/14 11:07:48;;;;;;;8.00;3.50;;;15.60;97.70;;;;;;5049477;28;20048;-69
2023/05/14 11:10:19;;;;;;;7.55;3.30;;;15.60;97.70;;;;;;5057235;28;20028;-70
2023/05/14 11:12:48;;;;;;;9.48;3.80;;;15.60;97.60;;;;;;5067415;28;20320;-70
2023/05/14 11:15:17;;;;;;;4.40;3.08;;;15.60;97.70;;;;;;5066828;28;20041;-69
2023/05/14 11:17:45;;;;;;;7.68;3.60;;;15.60;97.60;;;;;;5051926;28;20399;-69
2023/05/14 11:20:13;;;;;;;9.07;3.28;;;15.50;97.60;;;;;;5033990;28;20505;-69
2023/05/14 11:22:41;;;;;;;10.13;3.30;;;15.40;97.50;;;;;;5050332;28;20032;-69
2023/05/14 11:25:09;;;;;;;9.70;3.20;;;15.40;97.60;;;;;;5027996;28;20617;-69
2023/05/14 11:27:38;;;;;;;7.72;3.25;;;15.40;97.50;;;;;;5032221;28;20056;-69
2023/05/14 11:30:11;;;;;;;9.15;3.42;;;15.40;97.50;;;;;;5057460;28;20036;-70
2023/05/14 11:32:39;;;;;;;9.05;3.55;;;15.30;97.50;;;;;;5051215;28;20387;-69
2023/05/14 11:35:07;;;;;;;6.22;3.33;;;15.30;97.60;;;;;;5033183;28;20044;-69
2023/05/14 11:37:35;;;;;;;9.23;3.55;;;15.30;97.60;;;;;;5038412;28;20551;-69
2023/05/14 11:40:03;;;;;;;6.20;2.97;;;15.30;97.60;;;;;;5051226;28;20604;-69
2023/05/14 11:42:31;;;;;;;9.32;4.03;;;15.30;97.50;;;;;;5029599;28;20083;-69
2023/05/14 11:45:00;;;;;;;8.85;4.03;;;15.30;97.50;;;;;;5061935;28;20100;-69
2023/05/14 11:47:28;;;;;;;12.05;3.95;;;15.30;97.50;;;;;;5034737;28;20457;-69
2023/05/14 11:49:56;;;;;;;12.18;4.38;;;15.30;97.50;;;;;;5051992;28;20035;-70
2023/05/14 11:52:23;;;;;;;7.80;3.88;;;15.30;97.50;;;;;;5070689;28;20028;-70
2023/05/14 11:54:50;;;;;;;9.25;3.70;;;15.30;97.50;;;;;;5070771;28;20445;-68
2023/05/14 11:57:19;;;;;;;11.55;4.55;;;15.20;97.40;;;;;;5070220;28;20032;-66
2023/05/14 11:59:48;;;;;;;7.70;4.10;;;15.20;97.40;;;;;;5052975;28;20416;-66
2023/05/14 12:02:17;;;;;;;7.20;3.65;;;15.10;97.40;;;;;;5049337;28;20093;-67
2023/05/14 12:04:45;;;;;;;8.98;4.10;;;15.10;97.40;;;;;;5034362;28;20040;-67
2023/05/14 12:07:14;;;;;;;8.77;4.10;;;15.10;97.40;;;;;;5045763;28;20077;-66
2023/05/14 12:09:50;;;;;;;9.30;4.13;;;15.10;97.30;;;;;;5034632;28;20398;-66
2023/05/14 12:12:22;;;;;;;7.03;4.15;;;15.10;97.30;;;;;;5072942;28;20104;-67
2023/05/14 12:14:51;;;;;;;6.88;3.88;;;15.00;97.30;;;;;;5066363;28;20386;-66
2023/05/14 12:17:22;;;;;;;8.68;4.30;;;15.00;97.30;;;;;;5072246;22;20467;-70
2023/05/14 12:19:50;;;;;;;6.82;3.95;;;15.00;97.30;;;;;;5032640;28;20072;-69
2023/05/14 12:22:19;;;;;;;11.15;4.13;;;15.00;97.40;;;;;;5032226;28;20090;-69
2023/05/14 12:24:54;;;;;;;7.25;4.03;;;15.00;97.30;;;;;;5013091;28;20053;-70
2023/05/14 12:27:25;;;;;;;6.55;3.72;;;15.00;97.30;;;;;;5027349;28;20036;-69
2023/05/14 12:30:02;;;;;;;12.98;4.43;;;15.00;97.40;;;;;;5033791;28;20044;-69
2023/05/14 12:32:33;;;;;;;7.18;4.13;;;14.90;97.30;;;;;;5052118;28;20037;-70
2023/05/14 12:35:01;;;;;;;8.02;4.13;;;15.00;97.40;;;;;;5039372;28;20101;-69
2023/05/14 12:37:28;;;;;;;5.32;4.07;;;15.00;97.30;;;;;;5034262;28;20056;-69
2023/05/14 12:39:56;;;;;;;10.00;4.85;;;14.80;97.30;;;;;;5034613;28;20025;-70
2023/05/14 12:42:23;;;;;;;7.47;4.47;;;14.90;97.30;;;;;;5050578;28;20033;-69
2023/05/14 12:44:51;;;;;;;8.13;4.57;;;14.90;97.30;;;;;;5032409;28;20128;-69
2023/05/14 12:47:18;;;;;;;6.80;4.45;;;14.90;97.30;;;;;;5050313;28;20039;-69
2023/05/14 12:49:45;;;;;;;9.07;4.30;;;14.90;97.30;;;;;;5033642;28;20044;-69
2023/05/14 12:52:13;;;;;;;7.50;4.57;;;14.90;97.30;;;;;;5033463;28;20435;-69
2023/05/14 12:54:42;;;;;;;8.50;4.28;;;15.00;97.30;;;;;;5054869;28;20165;-69
2023/05/14 12:57:09;;;;;;;8.38;4.18;;;14.90;97.30;;;;;;5057009;28;20044;-69
2023/05/14 12:59:36;;;;;;;7.88;4.32;;;15.00;97.40;;;;;;5035368;28;20387;-69
2023/05/14 13:02:04;;;;;;;10.25;4.97;;;15.00;97.40;;;;;;5033651;28;20048;-69
2023/05/14 13:04:32;;;;;;;8.35;4.97;;;15.00;97.40;;;;;;5040903;28;20574;-69
2023/05/14 13:07:00;;;;;;;12.52;4.70;;;15.00;97.40;;;;;;5045901;28;20037;-69
2023/05/14 13:09:27;;;;;;;9.10;5.07;;;15.00;97.40;;;;;;5071566;28;20032;-69
2023/05/14 13:11:54;;;;;;;6.60;4.63;;;15.00;97.40;;;;;;5037045;28;20041;-69
2023/05/14 13:14:22;;;;;;;7.55;4.43;;;15.00;97.40;;;;;;5048418;28;20037;-69
2023/05/14 13:16:50;;;;;;;7.40;4.10;;;15.00;97.40;;;;;;5050560;28;20036;-70
2023/05/14 13:19:17;;;;;;;10.52;4.32;;;15.10;97.40;;;;;;5030247;28;20041;-69
2023/05/14 13:21:44;;;;;;;7.03;4.13;;;15.00;97.30;;;;;;5030862;28;20501;-69
2023/05/14 13:24:12;;;;;;;7.25;4.28;;;14.90;97.20;;;;;;5050393;28;20040;-70
2023/05/14 13:26:39;;;;;;;8.50;4.32;;;14.90;97.40;;;;;;5033365;28;20162;-69
2023/05/14 13:29:06;;;;;;;8.77;4.30;;;14.90;97.30;;;;;;5032346;28;20102;-69
2023/05/14 13:31:34;;;;;;;8.52;4.35;;;14.90;97.20;;;;;;5039336;28;20075;-69
2023/05/14 13:34:01;;;;;;;13.85;4.10;;;14.80;97.20;;;;;;5049521;28;20133;-70
2023/05/14 13:36:31;;;;;;;7.25;4.25;;;14.80;97.20;;;;;;5032904;28;20328;-70
2023/05/14 13:38:58;;;;;;;6.57;3.83;;;14.80;97.10;;;;;;5032976;28;20029;-70
2023/05/14 13:41:25;;;;;;;9.43;3.72;;;14.70;97.10;;;;;;5048482;28;20431;-69
2023/05/14 13:43:53;;;;;;;8.50;3.75;;;14.70;97.10;;;;;;5031095;28;20511;-69
2023/05/14 13:46:20;;;;;;;7.68;4.13;;;14.70;97.00;;;;;;5057594;28;20119;-70
2023/05/14 13:48:48;;;;;;;8.48;3.97;;;14.70;97.10;;;;;;5041894;28;20545;-71
2023/05/14 13:51:15;;;;;;;7.65;4.10;;;14.70;97.10;;;;;;5050249;28;20048;-69
2023/05/14 13:53:43;;;;;;;8.13;4.25;;;14.70;97.10;;;;;;5053741;28;20398;-69
2023/05/14 13:56:10;;;;;;;9.32;4.43;;;14.70;97.00;;;;;;5017278;28;20036;-69
2023/05/14 13:58:38;;;;;;;7.88;4.45;;;14.70;97.00;;;;;;5054727;28;20525;-69
2023/05/14 14:01:06;;;;;;;6.88;3.90;;;14.70;97.00;;;;;;5042030;28;20120;-70
2023/05/14 14:03:33;;;;;;;11.77;4.43;;;14.70;97.00;;;;;;5031718;28;20041;-69
2023/05/14 14:06:01;;;;;;;5.40;3.80;;;14.60;96.90;;;;;;5049562;28;20499;-69
2023/05/14 14:08:29;;;;;;;6.78;3.97;;;14.60;96.90;;;;;;5049567;28;20467;-69
2023/05/14 14:10:57;;;;;;;8.60;4.32;;;14.60;97.00;;;;;;5062403;28;20032;-68
2023/05/14 14:13:24;;;;;;;10.35;4.63;;;14.50;96.80;;;;;;5050255;28;20032;-69
2023/05/14 14:15:52;;;;;;;6.95;4.30;;;14.60;96.90;;;;;;5053447;28;20036;-69
2023/05/14 14:18:19;;;;;;;10.85;4.15;;;14.60;96.90;;;;;;5063804;28;20415;-69
2023/05/14 14:20:47;;;;;;;9.20;4.43;;;14.60;96.90;;;;;;5038516;28;20036;-69
2023/05/14 14:23:14;;;;;;;5.82;4.40;;;14.50;96.90;;;;;;5052201;28;20040;-69
2023/05/14 14:25:42;;;;;;;8.07;4.70;;;14.50;96.90;;;;;;5031290;28;20033;-69
2023/05/14 14:28:10;;;;;;;8.30;4.43;;;14.60;96.90;;;;;;5012143;28;20082;-69
2023/05/14 14:30:37;;;;;;;8.10;4.22;;;14.50;96.80;;;;;;5051398;28;20039;-69
2023/05/14 14:33:04;;;;;;;8.35;4.50;;;14.50;96.90;;;;;;5052596;28;20043;-68
2023/05/14 14:35:34;;;;;;;7.25;4.20;;;14.60;96.90;;;;;;5054399;28;20052;-70
2023/05/14 14:38:01;;;;;;;5.70;4.43;;;14.60;96.80;;;;;;5031455;28;20119;-69
2023/05/14 14:40:29;;;;;;;5.90;4.10;;;14.60;96.80;;;;;;5040230;28;20025;-69
2023/05/14 14:42:56;;;;;;;7.55;4.57;;;14.60;96.70;;;;;;5036109;28;20123;-69
2023/05/14 14:45:23;;;;;;;8.35;4.40;;;14.50;96.70;;;;;;5035840;28;20033;-69
2023/05/14 14:47:51;;;;;;;8.82;4.35;;;14.50;96.70;;;;;;5023614;28;20509;-69
2023/05/14 14:50:18;;;;;;;4.95;4.13;;;14.50;96.70;;;;;;5040968;28;20043;-69
2023/05/14 14:52:46;;;;;;;9.82;4.45;;;14.50;96.60;;;;;;5054244;28;20033;-69
2023/05/14 14:55:14;;;;;;;6.93;4.30;;;14.50;96.60;;;;;;5052718;28;20098;-69
2023/05/14 14:57:41;;;;;;;6.50;3.85;;;14.50;96.70;;;;;;5051146;28;20033;-69
2023/05/14 15:00:09;;;;;;;10.05;4.25;;;14.50;96.70;;;;;;5033025;28;20048;-69
2023/05/14 15:02:40;;;;;;;9.63;4.30;;;14.50;96.70;;;;;;5032623;28;20076;-70
2023/05/14 15:05:08;;;;;;;5.78;3.88;;;14.50;96.70;;;;;;5012425;28;20044;-69
2023/05/14 15:07:35;;;;;;;5.47;4.13;;;14.50;96.70;;;;;;5034159;28;20033;-69
2023/05/14 15:10:03;;;;;;;9.25;4.80;;;14.60;96.70;;;;;;5043228;28;20029;-69
2023/05/14 15:12:31;;;;;;;9.18;5.00;;;14.60;96.70;;;;;;5053424;28;20124;-69
2023/05/14 15:14:58;;;;;;;9.80;4.55;;;14.60;96.80;;;;;;5017987;28;20047;-69
2023/05/14 15:17:25;;;;;;;11.93;5.45;;;14.60;96.80;;;;;;5070361;28;20500;-70
2023/05/14 15:19:53;;;;;;;8.90;5.10;;;14.60;96.70;;;;;;5047172;28;20045;-70
2023/05/14 15:22:20;;;;;;;8.38;4.78;;;14.60;96.70;;;;;;5049838;28;20041;-70
2023/05/14 15:24:48;;;;;;;12.43;5.20;;;14.60;96.70;;;;;;5034013;28;20107;-69
2023/05/14 15:27:15;;;;;;;7.68;5.20;;;14.60;96.70;;;;;;5035391;28;20044;-69
2023/05/14 15:29:43;;;;;;;8.68;5.00;;;14.60;96.70;;;;;;5046950;28;20037;-69
2023/05/14 15:32:10;;;;;;;8.90;5.05;;;14.60;96.70;;;;;;5033740;28;20071;-69
2023/05/14 15:34:37;;;;;;;8.25;5.22;;;14.60;96.70;;;;;;5030516;28;20029;-69
2023/05/14 15:37:05;;;;;;;7.68;4.63;;;14.60;96.60;;;;;;5034701;28;20033;-70
2023/05/14 15:39:32;;;;;;;7.50;4.88;;;14.60;96.60;;;;;;5033958;28;20049;-69
2023/05/14 15:42:00;;;;;;;8.07;4.88;;;14.60;96.70;;;;;;5035036;28;20563;-69
2023/05/14 15:44:27;;;;;;;9.75;4.85;;;14.60;96.70;;;;;;5004557;28;20045;-69
2023/05/14 15:46:55;;;;;;;11.63;5.45;;;14.60;96.80;;;;;;5035158;28;20368;-69
2023/05/14 15:49:22;;;;;;;9.80;4.88;;;14.60;96.60;;;;;;5034488;28;20044;-69
2023/05/14 15:51:49;;;;;;;6.85;5.15;;;14.60;96.70;;;;;;5001367;28;20033;-69
2023/05/14 15:54:17;;;;;;;7.13;4.95;;;14.50;96.60;;;;;;5051391;28;20041;-69
2023/05/14 15:56:45;;;;;;;7.63;5.30;;;14.50;96.60;;;;;;5032270;28;20025;-68
2023/05/14 15:59:13;;;;;;;12.25;5.05;;;14.50;96.50;;;;;;5034356;28;20498;-70
2023/05/14 16:01:41;;;;;;;7.80;5.22;;;14.50;96.60;;;;;;5036686;28;20321;-70
2023/05/14 16:04:08;;;;;;;9.63;4.80;;;14.50;96.50;;;;;;5030315;28;20048;-70
2023/05/14 16:06:40;;;;;;;9.35;4.75;;;14.50;96.40;;;;;;5033749;28;20062;-70
2023/05/14 16:09:08;;;;;;;7.68;4.78;;;14.40;96.20;;;;;;5037539;28;20037;-70
2023/05/14 16:11:35;;;;;;;6.47;4.43;;;14.40;96.20;;;;;;5052745;28;20062;-69
2023/05/14 16:14:03;;;;;;;7.07;4.50;;;14.30;96.20;;;;;;5065888;28;20112;-70
2023/05/14 16:16:30;;;;;;;6.43;4.32;;;14.30;96.20;;;;;;5042029;28;20029;-69
2023/05/14 16:18:58;;;;;;;5.88;4.03;;;14.30;96.10;;;;;;5031021;28;20057;-69
2023/05/14 16:21:26;;;;;;;6.85;4.13;;;14.30;96.00;;;;;;5052113;28;20029;-69
2023/05/14 16:23:53;;;;;;;5.88;3.97;;;14.30;96.00;;;;;;5049853;28;20036;-70
2023/05/14 16:26:21;;;;;;;7.25;4.60;;;14.30;96.00;;;;;;5034681;28;20510;-69
2023/05/14 16:28:48;;;;;;;6.07;4.50;;;14.30;95.90;;;;;;5049442;28;20556;-69
2023/05/14 16:31:16;;;;;;;8.80;4.03;;;14.30;95.80;;;;;;5051940;28;20502;-69
2023/05/14 16:33:43;;;;;;;9.75;4.50;;;14.20;95.70;;;;;;5016852;28;20078;-70
2023/05/14 16:36:11;;;;;;;10.80;4.90;;;14.20;95.60;;;;;;5034266;28;20442;-70
2023/05/14 16:38:38;;;;;;;5.60;4.30;;;14.20;95.60;;;;;;5032206;28;20067;-70
2023/05/14 16:41:05;;;;;;;7.10;4.40;;;14.20;95.40;;;;;;5034578;28;20380;-69
2023/05/14 16:43:33;;;;;;;6.47;3.97;;;14.20;95.50;;;;;;5033182;28;20033;-69
2023/05/14 16:46:00;;;;;;;7.72;4.07;;;14.20;95.50;;;;;;5052307;28;20037;-69
2023/05/14 16:48:28;;;;;;;9.15;4.50;;;14.20;95.40;;;;;;5050153;28;20044;-69
2023/05/14 16:50:55;;;;;;;5.82;4.10;;;14.10;95.30;;;;;;5049943;28;20091;-69
2023/05/14 16:53:23;;;;;;;5.88;4.28;;;14.10;95.30;;;;;;5049756;28;20029;-69
2023/05/14 16:55:50;;;;;;;7.35;4.07;;;14.10;95.30;;;;;;5033757;28;20116;-69
2023/05/14 16:58:17;;;;;;;9.85;4.47;;;14.10;95.30;;;;;;5049893;28;20024;-70
2023/05/14 17:00:45;;;;;;;9.05;4.40;;;14.00;95.30;;;;;;5050610;28;20043;-68
2023/05/14 17:03:12;;;;;;;6.32;4.13;;;14.00;95.20;;;;;;5032389;28;20039;-69
2023/05/14 17:05:40;;;;;;;7.97;4.30;;;14.00;95.10;;;;;;5050084;28;20037;-69
2023/05/14 17:08:07;;;;;;;9.15;4.10;;;14.00;95.10;;;;;;5032714;28;20037;-69
2023/05/14 17:10:35;;;;;;;9.45;4.45;;;14.00;95.10;;;;;;5032886;28;20040;-69
2023/05/14 17:13:02;;;;;;;6.68;3.88;;;14.00;95.10;;;;;;5051507;28;20040;-69
2023/05/14 17:15:30;;;;;;;5.32;3.80;;;14.00;94.90;;;;;;5001256;28;20080;-69
2023/05/14 17:17:57;;;;;;;6.90;4.30;;;14.00;95.00;;;;;;5049758;28;20068;-69
2023/05/14 17:20:25;;;;;;;8.13;4.20;;;14.00;95.10;;;;;;5015439;28;20056;-69
2023/05/14 17:22:52;;;;;;;6.55;4.07;;;14.00;95.00;;;;;;5051235;28;20029;-69
2023/05/14 17:25:22;;;;;;;7.53;4.28;;;14.00;95.00;;;;;;5050328;28;20449;-69
2023/05/14 17:27:49;;;;;;;8.85;4.15;;;14.00;95.00;;;;;;5033161;28;20048;-69
2023/05/14 17:30:17;;;;;;;6.65;3.70;;;13.90;94.90;;;;;;5049376;28;20033;-69
2023/05/14 17:32:44;;;;;;;6.75;3.90;;;14.00;94.90;;;;;;5033670;28;20037;-69
2023/05/14 17:35:12;;;;;;;4.97;3.60;;;13.90;94.70;;;;;;5033071;28;20496;-69
2023/05/14 17:37:41;;;;;;;5.72;3.78;;;13.90;94.70;;;;;;5017535;28;20115;-69
2023/05/14 17:40:09;;;;;;;6.63;3.60;;;13.90;94.60;;;;;;5051465;28;20037;-69
2023/05/14 17:42:37;;;;;;;7.50;3.70;;;13.90;94.60;;;;;;5033043;28;20160;-70
2023/05/14 17:45:04;;;;;;;7.63;4.00;;;13.80;94.60;;;;;;5031722;28;20628;-68
2023/05/14 17:47:32;;;;;;;4.80;3.40;;;13.80;94.50;;;;;;5032985;28;20142;-69
2023/05/14 17:49:59;;;;;;;7.72;3.65;;;13.80;94.60;;;;;;5032354;28;20178;-69
2023/05/14 17:52:27;;;;;;;7.90;3.67;;;13.80;94.60;;;;;;5032521;28;20033;-69
2023/05/14 17:54:54;;;;;;;8.13;3.58;;;13.80;94.50;;;;;;5033023;28;20052;-69
2023/05/14 17:57:21;;;;;;;7.95;3.95;;;13.80;94.50;;;;;;5049187;28;20384;-69
2023/05/14 17:59:49;;;;;;;4.82;3.38;;;13.80;94.50;;;;;;5014864;28;20099;-69
2023/05/14 18:02:16;;;;;;;7.75;4.20;;;13.70;94.40;;;;;;5051140;28;20087;-70
2023/05/14 18:04:45;;;;;;;6.80;3.80;;;13.70;94.40;;;;;;5032560;28;20037;-69
2023/05/14 18:07:12;;;;;;;6.65;3.90;;;13.70;94.20;;;;;;5049923;28;20052;-69
2023/05/14 18:09:40;;;;;;;4.90;3.20;;;13.70;94.30;;;;;;5031678;28;20414;-69
2023/05/14 18:12:08;;;;;;;5.72;3.35;;;13.70;94.20;;;;;;5033556;28;20037;-69
2023/05/14 18:14:36;;;;;;;7.32;3.75;;;13.70;94.30;;;;;;5053117;28;20049;-69
2023/05/14 18:17:03;;;;;;;5.80;3.20;;;13.70;94.30;;;;;;5035472;28;20091;-69
2023/05/14 18:19:30;;;;;;;5.25;3.55;;;13.70;94.30;;;;;;4998991;28;20408;-70
2023/05/14 18:21:58;;;;;;;5.70;3.45;;;13.70;94.30;;;;;;5048253;28;20079;-69
2023/05/14 18:24:25;;;;;;;6.18;4.13;;;13.70;94.40;;;;;;5036234;28;20044;-69
2023/05/14 18:26:53;;;;;;;9.18;3.58;;;13.60;94.30;;;;;;5037385;28;20029;-70
2023/05/14 18:29:21;;;;;;;6.85;3.20;;;13.70;94.30;;;;;;5034153;28;20158;-70
2023/05/14 18:31:48;;;;;;;7.70;3.60;;;13.60;94.10;;;;;;5036304;28;20061;-70
2023/05/14 18:34:16;;;;;;;6.28;3.30;;;13.60;94.20;;;;;;5051713;28;20045;-69
2023/05/14 18:36:43;;;;;;;4.97;3.08;;;13.70;94.20;;;;;;5044786;28;20028;-69
2023/05/14 18:39:11;;;;;;;5.68;3.30;;;13.60;94.20;;;;;;5017109;28;20083;-70
2023/05/14 18:41:38;;;;;;;4.28;2.97;;;13.60;94.20;;;;;;5033792;28;20108;-70
2023/05/14 18:44:06;;;;;;;3.97;3.03;;;13.50;94.10;;;;;;5020262;28;20037;-69
2023/05/14 18:46:33;;;;;;;7.45;3.20;;;13.60;94.20;;;;;;5035500;28;20086;-69
2023/05/14 18:49:00;;;;;;;5.18;3.28;;;13.60;94.20;;;;;;5035276;28;20040;-70
2023/05/14 18:51:28;;;;;;;7.97;3.30;;;13.60;94.30;;;;;;5035413;28;20043;-70
2023/05/14 18:53:55;;;;;;;6.70;3.00;;;13.60;94.30;;;;;;5032211;28;20037;-71
2023/05/14 18:56:24;;;;;;;5.30;2.97;;;13.50;94.10;;;;;;5018990;28;20538;-71
2023/05/14 18:58:53;;;;;;;5.22;3.20;;;13.60;94.40;;;;;;5023421;28;20056;-70
2023/05/14 19:01:23;;;;;;;5.57;3.10;;;13.60;94.20;;;;;;5017956;28;20135;-70
2023/05/14 19:03:51;;;;;;;5.65;3.38;;;13.60;94.20;;;;;;5046370;28;20048;-71
2023/05/14 19:06:19;;;;;;;5.40;3.20;;;13.50;94.20;;;;;;5025474;28;20029;-71
2023/05/14 20:44:38;;;;;;;5.18;2.80;;;13.20;93.70;;;;;;5060862;28;20113;-69
2023/05/14 20:47:06;;;;;;;3.33;3.03;;;13.10;93.90;;;;;;5068877;28;20409;-69
2023/05/14 20:49:33;;;;;;;7.13;3.80;;;13.20;93.80;;;;;;5072044;28;20044;-69
2023/05/14 20:52:01;;;;;;;5.50;3.75;;;13.20;93.90;;;;;;5068954;28;20144;-69
2023/05/14 20:54:28;;;;;;;4.20;3.53;;;13.20;94.00;;;;;;5053231;28;20510;-69
2023/05/14 20:56:56;;;;;;;4.88;3.38;;;13.20;94.00;;;;;;5069787;28;20138;-69
2023/05/14 20:59:23;;;;;;;6.05;3.50;;;13.20;94.10;;;;;;5070671;28;20047;-69
2023/05/14 21:01:51;;;;;;;6.70;4.35;;;13.20;94.10;;;;;;5052695;28;20483;-69
2023/05/14 21:04:18;;;;;;;5.00;3.67;;;13.30;94.20;;;;;;5071554;28;20570;-70
2023/05/14 21:06:45;;;;;;;5.82;3.88;;;13.30;94.20;;;;;;5069055;28;20041;-69
2023/05/14 21:09:13;;;;;;;6.88;4.00;;;13.30;94.30;;;;;;5070392;28;20089;-69
2023/05/14 21:11:40;;;;;;;5.88;4.20;;;13.30;94.30;;;;;;5043300;28;20036;-69
2023/05/14 21:14:08;;;;;;;6.20;4.10;;;13.30;94.30;;;;;;5061438;28;20033;-70
2023/05/14 21:16:35;;;;;;;14.40;4.25;;;13.30;94.30;;;;;;5062526;28;20028;-69
2023/05/14 21:19:02;;;;;;;7.55;4.13;;;13.30;94.30;;;;;;5069732;28;20123;-70
2023/05/14 21:21:30;;;;;;;8.20;4.47;;;13.40;94.40;;;;;;5080393;28;20082;-69
2023/05/14 21:23:57;;;;;;;7.95;4.60;;;13.40;94.30;;;;;;5066496;28;20033;-70
2023/05/14 21:26:25;;;;;;;7.28;4.80;;;13.40;94.30;;;;;;5068899;28;20059;-70
2023/05/14 21:28:52;;;;;;;6.95;5.32;;;13.40;94.40;;;;;;5067192;28;20033;-70
2023/05/14 21:31:20;;;;;;;7.43;4.93;;;13.50;94.40;;;;;;5062238;28;20696;-69
2023/05/14 21:33:47;;;;;;;6.80;4.70;;;13.50;94.40;;;;;;5070213;28;20032;-69
2023/05/14 21:36:15;;;;;;;6.60;4.97;;;13.60;94.70;;;;;;5069101;28;20098;-69
2023/05/14 21:38:42;;;;;;;8.00;5.18;;;13.60;94.60;;;;;;5068843;28;20479;-69
2023/05/14 21:41:09;;;;;;;8.23;5.72;;;13.60;94.50;;;;;;5069407;28;20064;-69
2023/05/14 21:43:39;;;;;;;7.78;5.70;;;13.60;94.60;;;;;;5064585;28;20043;-70
2023/05/14 22:28:27;;;;;;;8.18;5.07;;;14.00;94.70;;;;;;5054402;28;20047;-71
2023/05/14 22:30:58;;;;;;;10.20;5.55;;;14.00;94.50;;;;;;5066529;28;20056;-69
2023/05/14 22:33:25;;;;;;;11.20;5.00;;;14.00;94.50;;;;;;5054604;28;20056;-69
2023/05/14 22:35:53;;;;;;;6.60;4.95;;;14.10;94.60;;;;;;5039639;28;20368;-70
2023/05/14 22:38:20;;;;;;;6.63;4.82;;;14.10;94.50;;;;;;5036653;28;20454;-70
2023/05/14 22:40:48;;;;;;;8.18;4.90;;;14.10;94.40;;;;;;5059079;28;20036;-69
2023/05/14 22:43:15;;;;;;;6.88;5.00;;;14.10;94.40;;;;;;5062987;28;20044;-69
2023/05/14 22:45:43;;;;;;;6.82;4.70;;;14.20;94.40;;;;;;5064227;28;20025;-70
2023/05/14 22:48:10;;;;;;;5.78;4.80;;;14.10;94.20;;;;;;5060171;28;20112;-70
2023/05/14 22:50:38;;;;;;;6.72;4.43;;;14.20;94.40;;;;;;5053338;28;20025;-70
2023/05/14 22:53:05;;;;;;;5.93;4.45;;;14.20;94.40;;;;;;5058196;28;20029;-70
2023/05/14 22:55:33;;;;;;;6.35;4.35;;;14.20;94.40;;;;;;5035409;28;20036;-70
2023/05/14 22:58:00;;;;;;;5.57;3.92;;;14.20;94.40;;;;;;5035846;28;20444;-69
2023/05/14 23:00:27;;;;;;;4.40;3.90;;;14.20;94.20;;;;;;5039298;28;20425;-70
2023/05/14 23:02:55;;;;;;;8.57;3.90;;;14.20;94.30;;;;;;5037214;28;20045;-70
2023/05/14 23:05:22;;;;;;;5.07;4.05;;;14.30;94.30;;;;;;5067204;28;20041;-69
2023/05/14 23:07:50;;;;;;;5.72;3.80;;;14.30;94.40;;;;;;5043823;28;20101;-70
2023/05/14 23:10:17;;;;;;;8.80;4.03;;;14.40;94.40;;;;;;5054246;28;20036;-70
2023/05/14 23:12:45;;;;;;;7.05;3.72;;;14.40;94.50;;;;;;5051304;28;20048;-69
2023/05/14 23:15:12;;;;;;;8.15;4.25;;;14.40;94.40;;;;;;5070222;28;20114;-69
2023/05/14 23:17:39;;;;;;;6.18;3.75;;;14.50;94.50;;;;;;5065837;28;20067;-70
2023/05/14 23:20:17;;;;;;;5.93;4.30;;;14.50;94.50;;;;;;5051604;28;20454;-70
2023/05/14 23:22:44;;;;;;;8.68;4.00;;;14.50;94.50;;;;;;5056024;22;20052;-68
2023/05/14 23:25:12;;;;;;;4.80;4.05;;;14.50;94.40;;;;;;5056827;28;20144;-69
2023/05/14 23:27:39;;;;;;;4.38;3.80;;;14.50;94.40;;;;;;5060066;28;20029;-69
2023/05/14 23:30:08;;;;;;;6.25;3.90;;;14.60;94.40;;;;;;5037383;28;20067;-69
2023/05/14 23:32:36;;;;;;;6.30;3.55;;;14.60;94.30;;;;;;5020003;28;20037;-68
2023/05/14 23:35:03;;;;;;;6.65;3.70;;;14.70;94.40;;;;;;5053233;28;20036;-68
2023/05/14 23:37:32;;;;;;;5.38;3.78;;;14.70;94.20;;;;;;5053038;28;20175;-68
2023/05/14 23:40:00;;;;;;;7.10;3.60;;;14.70;94.20;;;;;;5071873;28;20036;-68
2023/05/14 23:42:28;;;;;;;4.10;3.60;;;14.70;94.30;;;;;;5065705;28;20123;-68
2023/05/14 23:44:55;;;;;;;5.60;3.88;;;14.70;94.40;;;;;;5051349;28;20041;-68
2023/05/14 23:47:22;;;;;;;6.72;3.70;;;14.80;94.10;;;;;;5052286;28;20029;-68
2023/05/14 23:49:50;;;;;;;6.97;4.13;;;14.80;94.00;;;;;;5040036;28;20041;-68
2023/05/14 23:52:17;;;;;;;6.13;4.03;;;14.80;94.10;;;;;;5015532;28;20116;-68
2023/05/14 23:54:45;;;;;;;7.10;3.83;;;14.90;94.20;;;;;;5046260;28;20488;-70
2023/05/14 23:57:13;;;;;;;6.45;3.95;;;14.90;94.40;;;;;;5051124;28;20120;-70
2023/05/14 23:59:40;;;;;;;7.72;3.75;;;15.00;94.50;;;;;;5036916;28;20096;-69
